Time,TemperatureF,DewpointF,PressureIn,WindDirection,WindDirectionDegrees,WindSpeedMPH,WindSpeedGustMPH,Humidity,HourlyPrecipIn,Conditions,Clouds,dailyrainin,SolarRadiationWatts/m^2,SoftwareType,DateUTC
2013-04-17 00:02:00,56.0,7.0,-100.00,South,184,19.0,38.0,14,0.00,,,0.00,309.000000,,2013-04-17 00:02:00,
2013-04-17 00:12:00,56.0,7.0,-100.00,South,184,19.0,38.0,14,0.00,,,0.00,309.000000,,2013-04-17 00:12:00,
2013-04-17 00:22:00,56.0,7.0,-100.00,South,184,19.0,38.0,14,0.00,,,0.00,309.000000,,2013-04-17 00:22:00,
2013-04-17 00:32:00,56.0,7.0,-100.00,South,184,19.0,38.0,14,0.00,,,0.00,309.000000,,2013-04-17 00:32:00,
2013-04-17 01:02:00,55.0,7.0,-100.00,South,183,18.0,39.0,14,0.00,,,0.00,94.000000,,2013-04-17 01:02:00,
2013-04-17 01:12:00,55.0,7.0,-100.00,South,183,18.0,39.0,14,0.00,,,0.00,94.000000,,2013-04-17 01:12:00,
2013-04-17 01:22:00,55.0,7.0,-100.00,South,183,18.0,39.0,14,0.00,,,0.00,94.000000,,2013-04-17 01:22:00,
2013-04-17 01:32:00,55.0,7.0,-100.00,South,183,18.0,39.0,14,0.00,,,0.00,94.000000,,2013-04-17 01:32:00,
2013-04-17 02:02:00,53.0,7.0,-100.00,South,184,20.0,36.0,15,0.00,,,0.00,43.000000,,2013-04-17 02:02:00,
2013-04-17 02:12:00,53.0,7.0,-100.00,South,184,20.0,36.0,15,0.00,,,0.00,43.000000,,2013-04-17 02:12:00,
2013-04-17 02:22:00,53.0,7.0,-100.00,South,184,20.0,36.0,15,0.00,,,0.00,43.000000,,2013-04-17 02:22:00,
2013-04-17 02:32:00,53.0,7.0,-100.00,South,184,20.0,36.0,15,0.00,,,0.00,43.000000,,2013-04-17 02:32:00,
2013-04-17 03:02:00,52.0,6.0,-100.00,South,185,19.0,33.0,15,0.00,,,0.00,1.000000,,2013-04-17 03:02:00,
2013-04-17 03:12:00,52.0,6.0,-100.00,South,185,19.0,33.0,15,0.00,,,0.00,1.000000,,2013-04-17 03:12:00,
2013-04-17 03:22:00,52.0,6.0,-100.00,South,185,19.0,33.0,15,0.00,,,0.00,1.000000,,2013-04-17 03:22:00,
2013-04-17 03:33:00,52.0,6.0,-100.00,South,185,19.0,33.0,15,0.00,,,0.00,1.000000,,2013-04-17 03:33:00,
2013-04-17 04:03:00,49.0,6.0,-100.00,South,181,16.0,33.0,17,0.00,,,0.00,0.000000,,2013-04-17 04:03:00,
2013-04-17 04:13:00,49.0,6.0,-100.00,South,181,16.0,33.0,17,0.00,,,0.00,0.000000,,2013-04-17 04:13:00,
2013-04-17 04:22:00,49.0,6.0,-100.00,South,181,16.0,33.0,17,0.00,,,0.00,0.000000,,2013-04-17 04:22:00,
2013-04-17 04:33:00,49.0,6.0,-100.00,South,181,16.0,33.0,17,0.00,,,0.00,0.000000,,2013-04-17 04:33:00,
2013-04-17 05:02:00,49.0,7.0,-100.00,South,180,18.0,32.0,18,0.00,,,0.00,0.000000,,2013-04-17 05:02:00,
2013-04-17 05:12:00,49.0,7.0,-100.00,South,180,18.0,32.0,18,0.00,,,0.00,0.000000,,2013-04-17 05:12:00,
2013-04-17 05:22:00,49.0,7.0,-100.00,South,180,18.0,32.0,18,0.00,,,0.00,0.000000,,2013-04-17 05:22:00,
2013-04-17 05:32:00,49.0,7.0,-100.00,South,180,18.0,32.0,18,0.00,,,0.00,0.000000,,2013-04-17 05:32:00,
2013-04-17 06:02:00,47.0,9.0,-100.00,South,181,15.0,33.0,21,0.00,,,0.00,0.000000,,2013-04-17 06:02:00,
2013-04-17 06:12:00,47.0,9.0,-100.00,South,181,15.0,33.0,21,0.00,,,0.00,0.000000,,2013-04-17 06:12:00,
2013-04-17 06:22:00,47.0,9.0,-100.00,South,181,15.0,33.0,21,0.00,,,0.00,0.000000,,2013-04-17 06:22:00,
2013-04-17 06:32:00,47.0,9.0,-100.00,South,181,15.0,33.0,21,0.00,,,0.00,0.000000,,2013-04-17 06:32:00,
2013-04-17 07:02:00,45.0,11.0,-100.00,South,178,15.0,30.0,25,0.00,,,0.00,0.000000,,2013-04-17 07:02:00,
2013-04-17 07:12:00,45.0,11.0,-100.00,South,178,15.0,30.0,25,0.00,,,0.00,0.000000,,2013-04-17 07:12:00,
2013-04-17 07:22:00,45.0,11.0,-100.00,South,178,15.0,30.0,25,0.00,,,0.00,0.000000,,2013-04-17 07:22:00,
2013-04-17 07:32:00,45.0,11.0,-100.00,South,178,15.0,30.0,25,0.00,,,0.00,0.000000,,2013-04-17 07:32:00,
2013-04-17 08:02:00,44.0,12.0,-100.00,South,189,16.0,32.0,27,0.00,,,0.00,0.000000,,2013-04-17 08:02:00,
2013-04-17 08:12:00,44.0,12.0,-100.00,South,189,16.0,32.0,27,0.00,,,0.00,0.000000,,2013-04-17 08:12:00,
2013-04-17 08:22:00,44.0,12.0,-100.00,South,189,16.0,32.0,27,0.00,,,0.00,0.000000,,2013-04-17 08:22:00,
2013-04-17 08:32:00,44.0,12.0,-100.00,South,189,16.0,32.0,27,0.00,,,0.00,0.000000,,2013-04-17 08:32:00,
2013-04-17 09:02:00,42.0,9.0,-100.00,South,191,10.0,25.0,25,0.00,,,0.00,0.000000,,2013-04-17 09:02:00,
2013-04-17 09:12:00,42.0,9.0,-100.00,South,191,10.0,25.0,25,0.00,,,0.00,0.000000,,2013-04-17 09:12:00,
2013-04-17 09:22:00,42.0,9.0,-100.00,South,191,10.0,25.0,25,0.00,,,0.00,0.000000,,2013-04-17 09:22:00,
2013-04-17 09:33:00,42.0,9.0,-100.00,South,191,10.0,25.0,25,0.00,,,0.00,0.000000,,2013-04-17 09:33:00,
2013-04-17 10:02:00,39.0,12.0,-100.00,SSE,166,8.0,17.0,33,0.00,,,0.00,0.000000,,2013-04-17 10:02:00,
2013-04-17 10:12:00,39.0,12.0,-100.00,SSE,166,8.0,17.0,33,0.00,,,0.00,0.000000,,2013-04-17 10:12:00,
2013-04-17 10:23:00,39.0,12.0,-100.00,SSE,166,8.0,17.0,33,0.00,,,0.00,0.000000,,2013-04-17 10:23:00,
2013-04-17 10:32:00,39.0,12.0,-100.00,SSE,166,8.0,17.0,33,0.00,,,0.00,0.000000,,2013-04-17 10:32:00,
2013-04-17 11:02:00,38.0,17.0,-100.00,SE,143,15.0,24.0,42,0.00,,,0.00,0.000000,,2013-04-17 11:02:00,
2013-04-17 11:12:00,38.0,17.0,-100.00,SE,143,15.0,24.0,42,0.00,,,0.00,0.000000,,2013-04-17 11:12:00,
2013-04-17 11:22:00,38.0,17.0,-100.00,SE,143,15.0,24.0,42,0.00,,,0.00,0.000000,,2013-04-17 11:22:00,
2013-04-17 11:32:00,38.0,17.0,-100.00,SE,143,15.0,24.0,42,0.00,,,0.00,0.000000,,2013-04-17 11:32:00,
2013-04-17 12:02:00,38.0,21.0,-100.00,SSE,159,13.0,24.0,49,0.00,,,0.00,0.000000,,2013-04-17 12:02:00,
2013-04-17 12:12:00,38.0,21.0,-100.00,SSE,159,13.0,24.0,49,0.00,,,0.00,0.000000,,2013-04-17 12:12:00,
2013-04-17 12:22:00,38.0,21.0,-100.00,SSE,159,13.0,24.0,49,0.00,,,0.00,0.000000,,2013-04-17 12:22:00,
2013-04-17 12:32:00,38.0,21.0,-100.00,SSE,159,13.0,24.0,49,0.00,,,0.00,0.000000,,2013-04-17 12:32:00,
2013-04-17 13:02:00,37.0,21.0,-100.00,SSE,168,13.0,25.0,52,0.00,,,0.00,1.000000,,2013-04-17 13:02:00,
2013-04-17 13:12:00,37.0,21.0,-100.00,SSE,168,13.0,25.0,52,0.00,,,0.00,1.000000,,2013-04-17 13:12:00,
2013-04-17 13:22:00,37.0,21.0,-100.00,SSE,168,13.0,25.0,52,0.00,,,0.00,1.000000,,2013-04-17 13:22:00,
2013-04-17 13:32:00,37.0,21.0,-100.00,SSE,168,13.0,25.0,52,0.00,,,0.00,1.000000,,2013-04-17 13:32:00,
2013-04-17 14:02:00,37.0,21.0,-100.00,South,178,16.0,24.0,52,0.00,,,0.00,12.000000,,2013-04-17 14:02:00,
2013-04-17 14:12:00,37.0,21.0,-100.00,South,178,16.0,24.0,52,0.00,,,0.00,12.000000,,2013-04-17 14:12:00,
2013-04-17 14:22:00,37.0,21.0,-100.00,South,178,16.0,24.0,52,0.00,,,0.00,12.000000,,2013-04-17 14:22:00,
2013-04-17 14:32:00,37.0,21.0,-100.00,South,178,16.0,24.0,52,0.00,,,0.00,12.000000,,2013-04-17 14:32:00,
2013-04-17 15:02:00,36.0,23.0,-100.00,SE,141,16.0,27.0,60,0.00,,,0.00,60.000000,,2013-04-17 15:02:00,
2013-04-17 15:12:00,36.0,23.0,-100.00,SE,141,16.0,27.0,60,0.00,,,0.00,60.000000,,2013-04-17 15:12:00,
2013-04-17 15:22:00,36.0,23.0,-100.00,SE,141,16.0,27.0,60,0.00,,,0.00,60.000000,,2013-04-17 15:22:00,
2013-04-17 15:33:00,36.0,23.0,-100.00,SE,141,16.0,27.0,60,0.00,,,0.00,60.000000,,2013-04-17 15:33:00,
2013-04-17 16:03:00,40.0,22.0,-100.00,South,177,20.0,29.0,48,0.00,,,0.00,317.000000,,2013-04-17 16:03:00,
2013-04-17 16:12:00,40.0,22.0,-100.00,South,177,20.0,29.0,48,0.00,,,0.00,317.000000,,2013-04-17 16:12:00,
2013-04-17 16:22:00,40.0,22.0,-100.00,South,177,20.0,29.0,48,0.00,,,0.00,317.000000,,2013-04-17 16:22:00,
2013-04-17 16:32:00,40.0,22.0,-100.00,South,177,20.0,29.0,48,0.00,,,0.00,317.000000,,2013-04-17 16:32:00,
2013-04-17 17:02:00,44.0,17.0,-100.00,SSE,163,22.0,35.0,33,0.00,,,-99.99,458.000000,,2013-04-17 17:02:00,
2013-04-17 17:12:00,44.0,17.0,-100.00,SSE,163,22.0,35.0,33,0.00,,,-99.99,458.000000,,2013-04-17 17:12:00,
2013-04-17 17:22:00,44.0,17.0,-100.00,SSE,163,22.0,35.0,33,0.00,,,-99.99,458.000000,,2013-04-17 17:22:00,
2013-04-17 17:33:00,44.0,17.0,-100.00,SSE,163,22.0,35.0,33,0.00,,,-99.99,458.000000,,2013-04-17 17:33:00,
2013-04-17 18:02:00,45.0,14.0,-100.00,SSE,161,24.0,36.0,28,0.00,,,0.00,543.000000,,2013-04-17 18:02:00,
2013-04-17 18:12:00,45.0,14.0,-100.00,SSE,161,24.0,36.0,28,0.00,,,0.00,543.000000,,2013-04-17 18:12:00,
2013-04-17 18:22:00,45.0,14.0,-100.00,SSE,161,24.0,36.0,28,0.00,,,0.00,543.000000,,2013-04-17 18:22:00,
2013-04-17 18:32:00,45.0,14.0,-100.00,SSE,161,24.0,36.0,28,0.00,,,0.00,543.000000,,2013-04-17 18:32:00,
2013-04-17 19:02:00,39.0,14.0,-100.00,WSW,239,13.0,37.0,36,0.00,,,0.00,617.000000,,2013-04-17 19:02:00,
2013-04-17 19:12:00,39.0,14.0,-100.00,WSW,239,13.0,37.0,36,0.00,,,0.00,617.000000,,2013-04-17 19:12:00,
2013-04-17 19:22:00,39.0,14.0,-100.00,WSW,239,13.0,37.0,36,0.00,,,0.00,617.000000,,2013-04-17 19:22:00,
2013-04-17 19:32:00,39.0,14.0,-100.00,WSW,239,13.0,37.0,36,0.00,,,0.00,617.000000,,2013-04-17 19:32:00,
2013-04-17 20:02:00,43.0,12.0,-100.00,SSW,196,14.0,33.0,28,0.00,,,0.00,421.000000,,2013-04-17 20:02:00,
2013-04-17 20:12:00,43.0,12.0,-100.00,SSW,196,14.0,33.0,28,0.00,,,0.00,421.000000,,2013-04-17 20:12:00,
2013-04-17 20:22:00,43.0,12.0,-100.00,SSW,196,14.0,33.0,28,0.00,,,0.00,421.000000,,2013-04-17 20:22:00,
2013-04-17 20:32:00,43.0,12.0,-100.00,SSW,196,14.0,33.0,28,0.00,,,0.00,421.000000,,2013-04-17 20:32:00,
2013-04-17 21:03:00,39.0,6.0,-100.00,SSW,205,16.0,36.0,25,0.00,,,0.00,433.000000,,2013-04-17 21:03:00,
2013-04-17 21:12:00,39.0,6.0,-100.00,SSW,205,16.0,36.0,25,0.00,,,0.00,433.000000,,2013-04-17 21:12:00,
2013-04-17 21:22:00,39.0,6.0,-100.00,SSW,205,16.0,36.0,25,0.00,,,0.00,433.000000,,2013-04-17 21:22:00,
2013-04-17 21:33:00,39.0,6.0,-100.00,SSW,205,16.0,36.0,25,0.00,,,0.00,433.000000,,2013-04-17 21:33:00,
2013-04-17 22:02:00,34.0,14.0,-100.00,WNW,295,19.0,33.0,43,0.00,,,0.00,328.000000,,2013-04-17 22:02:00,
2013-04-17 22:12:00,34.0,14.0,-100.00,WNW,295,19.0,33.0,43,0.00,,,0.00,328.000000,,2013-04-17 22:12:00,
2013-04-17 22:22:00,34.0,14.0,-100.00,WNW,295,19.0,33.0,43,0.00,,,0.00,328.000000,,2013-04-17 22:22:00,
2013-04-17 22:33:00,34.0,14.0,-100.00,WNW,295,19.0,33.0,43,0.00,,,0.00,328.000000,,2013-04-17 22:33:00,
2013-04-17 23:02:00,37.0,11.0,-100.00,WNW,302,16.0,29.0,34,0.00,,,0.00,610.000000,,2013-04-17 23:02:00,
2013-04-17 23:12:00,37.0,11.0,-100.00,WNW,302,16.0,29.0,34,0.00,,,0.00,610.000000,,2013-04-17 23:12:00,
2013-04-17 23:22:00,37.0,11.0,-100.00,WNW,302,16.0,29.0,34,0.00,,,0.00,610.000000,,2013-04-17 23:22:00,
2013-04-17 23:32:00,37.0,11.0,-100.00,WNW,302,16.0,29.0,34,0.00,,,0.00,610.000000,,2013-04-17 23:32:00,